sensor_id;sensor_type;location;lat;lon;timestamp;pressure;altitude;pressure_sealevel;temperature;humidity
3294;BME280;1659;51.470;6.770;2023-09-30T00:02:17;102307.75;;;12.99;100.00
3294;BME280;1659;51.470;6.770;2023-09-30T00:04:43;102305.97;;;12.99;100.00
3294;BME280;1659;51.470;6.770;2023-09-30T00:07:10;102316.59;;;12.99;100.00
3294;BME280;1659;51.470;6.770;2023-09-30T00:09:37;102314.84;;;12.98;100.00
3294;BME280;1659;51.470;6.770;2023-09-30T00:12:05;102318.38;;;12.99;100.00
3294;BME280;1659;51.470;6.770;2023-09-30T00:14:31;102321.91;;;13.01;100.00
3294;BME280;1659;51.470;6.770;2023-09-30T00:16:58;102322.78;;;13.03;100.00
3294;BME280;1659;51.470;6.770;2023-09-30T00:19:25;102307.75;;;13.03;100.00
3294;BME280;1659;51.470;6.770;2023-09-30T00:21:51;102305.09;;;13.03;100.00
3294;BME280;1659;51.470;6.770;2023-09-30T00:24:18;102307.72;;;13.07;100.00
3294;BME280;1659;51.470;6.770;2023-09-30T00:26:45;102299.75;;;13.07;100.00
3294;BME280;1659;51.470;6.770;2023-09-30T00:29:14;102301.53;;;13.09;100.00
3294;BME280;1659;51.470;6.770;2023-09-30T00:31:40;102304.19;;;13.11;100.00
3294;BME280;1659;51.470;6.770;2023-09-30T00:34:07;102313.00;;;13.11;100.00
3294;BME280;1659;51.470;6.770;2023-09-30T00:36:33;102318.31;;;13.13;100.00
3294;BME280;1659;51.470;6.770;2023-09-30T00:39:00;102320.97;;;13.13;100.00
3294;BME280;1659;51.470;6.770;2023-09-30T00:41:27;102318.31;;;13.13;100.00
3294;BME280;1659;51.470;6.770;2023-09-30T00:43:53;102320.97;;;13.14;100.00
3294;BME280;1659;51.470;6.770;2023-09-30T00:46:26;102320.06;;;13.15;100.00
3294;BME280;1659;51.470;6.770;2023-09-30T00:48:53;102333.34;;;13.17;100.00
3294;BME280;1659;51.470;6.770;2023-09-30T00:51:21;102331.59;;;13.16;100.00
3294;BME280;1659;51.470;6.770;2023-09-30T00:53:49;102332.47;;;13.15;100.00
3294;BME280;1659;51.470;6.770;2023-09-30T00:56:16;102328.94;;;13.16;100.00
3294;BME280;1659;51.470;6.770;2023-09-30T00:58:45;102340.44;;;13.15;100.00
3294;BME280;1659;51.470;6.770;2023-09-30T01:01:12;102352.81;;;13.14;100.00
3294;BME280;1659;51.470;6.770;2023-09-30T01:03:40;102352.81;;;13.14;100.00
3294;BME280;1659;51.470;6.770;2023-09-30T01:06:07;102327.16;;;13.16;100.00
3294;BME280;1659;51.470;6.770;2023-09-30T01:08:35;102305.91;;;13.16;100.00
3294;BME280;1659;51.470;6.770;2023-09-30T01:11:02;102318.28;;;13.17;100.00
3294;BME280;1659;51.470;6.770;2023-09-30T01:13:32;102319.19;;;13.18;100.00
3294;BME280;1659;51.470;6.770;2023-09-30T01:16:03;102323.59;;;13.20;100.00
3294;BME280;1659;51.470;6.770;2023-09-30T01:18:29;102312.09;;;13.21;100.00
3294;BME280;1659;51.470;6.770;2023-09-30T01:20:59;102324.50;;;13.19;100.00
3294;BME280;1659;51.470;6.770;2023-09-30T01:23:30;102338.63;;;13.17;100.00
3294;BME280;1659;51.470;6.770;2023-09-30T01:25:56;102344.88;;;13.14;100.00
3294;BME280;1659;51.470;6.770;2023-09-30T01:28:24;102354.56;;;13.14;100.00
3294;BME280;1659;51.470;6.770;2023-09-30T01:30:51;102347.53;;;13.13;100.00
3294;BME280;1659;51.470;6.770;2023-09-30T01:33:18;102336.03;;;13.11;100.00
3294;BME280;1659;51.470;6.770;2023-09-30T01:35:45;102339.56;;;13.10;100.00
3294;BME280;1659;51.470;6.770;2023-09-30T01:38:11;102338.69;;;13.08;100.00
3294;BME280;1659;51.470;6.770;2023-09-30T01:40:39;102336.03;;;13.06;100.00
3294;BME280;1659;51.470;6.770;2023-09-30T01:43:07;102336.94;;;13.03;100.00
3294;BME280;1659;51.470;6.770;2023-09-30T01:45:34;102343.13;;;13.04;100.00
3294;BME280;1659;51.470;6.770;2023-09-30T01:48:01;102344.00;;;13.03;100.00
3294;BME280;1659;51.470;6.770;2023-09-30T01:50:27;102342.25;;;13.00;100.00
3294;BME280;1659;51.470;6.770;2023-09-30T01:52:54;102342.25;;;12.97;100.00
3294;BME280;1659;51.470;6.770;2023-09-30T01:55:20;102353.78;;;12.95;100.00
3294;BME280;1659;51.470;6.770;2023-09-30T01:57:48;102364.41;;;12.90;100.00
3294;BME280;1659;51.470;6.770;2023-09-30T02:00:15;102368.84;;;12.87;100.00
3294;BME280;1659;51.470;6.770;2023-09-30T02:02:42;102378.56;;;12.84;100.00
3294;BME280;1659;51.470;6.770;2023-09-30T02:05:09;102375.06;;;12.79;100.00
3294;BME280;1659;51.470;6.770;2023-09-30T02:07:36;102375.03;;;12.72;100.00
3294;BME280;1659;51.470;6.770;2023-09-30T02:10:04;102372.41;;;12.65;100.00
3294;BME280;1659;51.470;6.770;2023-09-30T02:12:30;102368.00;;;12.61;100.00
3294;BME280;1659;51.470;6.770;2023-09-30T02:14:58;102367.09;;;12.56;100.00
3294;BME280;1659;51.470;6.770;2023-09-30T02:17:25;102371.53;;;12.53;100.00
3294;BME280;1659;51.470;6.770;2023-09-30T02:19:51;102381.25;;;12.47;100.00
3294;BME280;1659;51.470;6.770;2023-09-30T02:22:18;102369.78;;;12.47;100.00
3294;BME280;1659;51.470;6.770;2023-09-30T02:24:45;102357.41;;;12.43;100.00
3294;BME280;1659;51.470;6.770;2023-09-30T02:27:11;102348.59;;;12.41;100.00
3294;BME280;1659;51.470;6.770;2023-09-30T02:29:38;102349.44;;;12.37;100.00
3294;BME280;1659;51.470;6.770;2023-09-30T02:32:06;102353.88;;;12.32;100.00
3294;BME280;1659;51.470;6.770;2023-09-30T02:34:32;102345.94;;;12.28;100.00
3294;BME280;1659;51.470;6.770;2023-09-30T02:37:00;102349.47;;;12.27;100.00
3294;BME280;1659;51.470;6.770;2023-09-30T02:39:27;102360.06;;;12.23;100.00
3294;BME280;1659;51.470;6.770;2023-09-30T02:41:53;102353.00;;;12.17;100.00
3294;BME280;1659;51.470;6.770;2023-09-30T02:44:20;102359.19;;;12.13;100.00
3294;BME280;1659;51.470;6.770;2023-09-30T02:46:46;102356.53;;;12.10;100.00
3294;BME280;1659;51.470;6.770;2023-09-30T02:49:14;102362.72;;;12.11;100.00
3294;BME280;1659;51.470;6.770;2023-09-30T02:51:41;102360.97;;;12.06;100.00
3294;BME280;1659;51.470;6.770;2023-09-30T02:54:07;102370.69;;;12.06;100.00
3294;BME280;1659;51.470;6.770;2023-09-30T02:56:34;102359.19;;;12.02;100.00
3294;BME280;1659;51.470;6.770;2023-09-30T02:59:01;102357.41;;;12.01;100.00
3294;BME280;1659;51.470;6.770;2023-09-30T03:01:28;102370.66;;;12.00;100.00
3294;BME280;1659;51.470;6.770;2023-09-30T03:03:55;102377.72;;;11.98;100.00
3294;BME280;1659;51.470;6.770;2023-09-30T03:06:23;102380.38;;;11.96;100.00
3294;BME280;1659;51.470;6.770;2023-09-30T03:08:50;102375.06;;;11.95;100.00
3294;BME280;1659;51.470;6.770;2023-09-30T03:11:17;102372.41;;;11.93;100.00
3294;BME280;1659;51.470;6.770;2023-09-30T03:13:45;102369.75;;;11.93;100.00
3294;BME280;1659;51.470;6.770;2023-09-30T03:16:11;102370.66;;;11.94;100.00
3294;BME280;1659;51.470;6.770;2023-09-30T03:18:38;102360.94;;;11.94;100.00
3294;BME280;1659;51.470;6.770;2023-09-30T03:21:13;102368.03;;;11.94;100.00
3294;BME280;1659;51.470;6.770;2023-09-30T03:23:42;102368.91;;;11.96;100.00
3294;BME280;1659;51.470;6.770;2023-09-30T03:26:09;102364.47;;;11.95;100.00
3294;BME280;1659;51.470;6.770;2023-09-30T03:28:35;102373.31;;;11.94;100.00
3294;BME280;1659;51.470;6.770;2023-09-30T03:31:02;102359.16;;;11.93;100.00
3294;BME280;1659;51.470;6.770;2023-09-30T03:33:30;102348.56;;;11.92;100.00
3294;BME280;1659;51.470;6.770;2023-09-30T03:35:56;102353.84;;;11.88;100.00
3294;BME280;1659;51.470;6.770;2023-09-30T03:38:25;102358.25;;;11.89;100.00
3294;BME280;1659;51.470;6.770;2023-09-30T03:40:53;102361.81;;;11.90;100.00
3294;BME280;1659;51.470;6.770;2023-09-30T03:43:20;102359.16;;;11.93;100.00
3294;BME280;1659;51.470;6.770;2023-09-30T03:45:48;102353.88;;;11.96;100.00
3294;BME280;1659;51.470;6.770;2023-09-30T03:48:15;102350.38;;;11.99;100.00
3294;BME280;1659;51.470;6.770;2023-09-30T03:50:44;102348.59;;;11.99;100.00
3294;BME280;1659;51.470;6.770;2023-09-30T03:53:10;102348.59;;;12.01;100.00
3294;BME280;1659;51.470;6.770;2023-09-30T03:55:38;102358.31;;;11.99;100.00
3294;BME280;1659;51.470;6.770;2023-09-30T03:58:07;102366.25;;;11.99;100.00
3294;BME280;1659;51.470;6.770;2023-09-30T04:00:33;102371.56;;;11.97;100.00
3294;BME280;1659;51.470;6.770;2023-09-30T04:03:01;102359.19;;;11.96;100.00
3294;BME280;1659;51.470;6.770;2023-09-30T04:05:28;102345.06;;;11.96;100.00
3294;BME280;1659;51.470;6.770;2023-09-30T04:07:57;102340.63;;;11.95;100.00
3294;BME280;1659;51.470;6.770;2023-09-30T04:10:23;102353.00;;;11.93;100.00
3294;BME280;1659;51.470;6.770;2023-09-30T04:12:50;102350.34;;;11.91;100.00
3294;BME280;1659;51.470;6.770;2023-09-30T04:15:18;102356.50;;;11.92;100.00
3294;BME280;1659;51.470;6.770;2023-09-30T04:17:45;102356.50;;;11.92;100.00
3294;BME280;1659;51.470;6.770;2023-09-30T04:20:11;102352.94;;;11.89;100.00
3294;BME280;1659;51.470;6.770;2023-09-30T04:22:45;102360.91;;;11.89;100.00
3294;BME280;1659;51.470;6.770;2023-09-30T04:25:15;102360.00;;;11.87;100.00
3294;BME280;1659;51.470;6.770;2023-09-30T04:27:42;102357.38;;;11.87;100.00
3294;BME280;1659;51.470;6.770;2023-09-30T04:30:10;102351.19;;;11.87;100.00
3294;BME280;1659;51.470;6.770;2023-09-30T04:32:38;102346.75;;;11.86;100.00
3294;BME280;1659;51.470;6.770;2023-09-30T04:35:05;102364.44;;;11.87;100.00
3294;BME280;1659;51.470;6.770;2023-09-30T04:37:33;102368.88;;;11.86;100.00
3294;BME280;1659;51.470;6.770;2023-09-30T04:40:03;102367.09;;;11.85;100.00
3294;BME280;1659;51.470;6.770;2023-09-30T04:42:33;102367.97;;;11.81;100.00
3294;BME280;1659;51.470;6.770;2023-09-30T04:45:02;102374.13;;;11.79;100.00
3294;BME280;1659;51.470;6.770;2023-09-30T04:47:29;102372.38;;;11.75;100.00
3294;BME280;1659;51.470;6.770;2023-09-30T04:49:57;102368.84;;;11.73;100.00
3294;BME280;1659;51.470;6.770;2023-09-30T04:52:24;102379.41;;;11.71;100.00
3294;BME280;1659;51.470;6.770;2023-09-30T04:54:52;102388.22;;;11.68;100.00
3294;BME280;1659;51.470;6.770;2023-09-30T04:57:19;102394.41;;;11.66;100.00
3294;BME280;1659;51.470;6.770;2023-09-30T04:59:45;102399.69;;;11.63;100.00
3294;BME280;1659;51.470;6.770;2023-09-30T05:02:12;102406.75;;;11.59;100.00
3294;BME280;1659;51.470;6.770;2023-09-30T05:04:40;102408.53;;;11.59;100.00
3294;BME280;1659;51.470;6.770;2023-09-30T05:07:08;102406.75;;;11.59;100.00
3294;BME280;1659;51.470;6.770;2023-09-30T05:09:35;102404.09;;;11.58;100.00
3294;BME280;1659;51.470;6.770;2023-09-30T05:12:04;102405.88;;;11.59;100.00
3294;BME280;1659;51.470;6.770;2023-09-30T05:14:31;102413.81;;;11.59;100.00
3294;BME280;1659;51.470;6.770;2023-09-30T05:16:58;102405.88;;;11.60;100.00
3294;BME280;1659;51.470;6.770;2023-09-30T05:19:25;102397.03;;;11.60;100.00
3294;BME280;1659;51.470;6.770;2023-09-30T05:21:51;102395.28;;;11.59;100.00
3294;BME280;1659;51.470;6.770;2023-09-30T05:24:19;102397.03;;;11.58;100.00
3294;BME280;1659;51.470;6.770;2023-09-30T05:26:46;102406.75;;;11.59;100.00
3294;BME280;1659;51.470;6.770;2023-09-30T05:29:13;102402.31;;;11.58;100.00
3294;BME280;1659;51.470;6.770;2023-09-30T05:31:40;102412.03;;;11.58;100.00
3294;BME280;1659;51.470;6.770;2023-09-30T05:34:07;102414.69;;;11.58;100.00
3294;BME280;1659;51.470;6.770;2023-09-30T05:36:34;102413.81;;;11.57;100.00
3294;BME280;1659;51.470;6.770;2023-09-30T05:39:01;102413.78;;;11.56;100.00
3294;BME280;1659;51.470;6.770;2023-09-30T05:41:30;102422.63;;;11.58;100.00
3294;BME280;1659;51.470;6.770;2023-09-30T05:43:56;102427.03;;;11.62;100.00
3294;BME280;1659;51.470;6.770;2023-09-30T05:46:24;102420.00;;;11.64;100.00
3294;BME280;1659;51.470;6.770;2023-09-30T05:48:50;102412.94;;;11.63;100.00
3294;BME280;1659;51.470;6.770;2023-09-30T05:51:17;102420.91;;;11.66;100.00
3294;BME280;1659;51.470;6.770;2023-09-30T05:53:44;102422.66;;;11.68;100.00
3294;BME280;1659;51.470;6.770;2023-09-30T05:56:12;102409.44;;;11.75;100.00
3294;BME280;1659;51.470;6.770;2023-09-30T05:58:41;102411.22;;;11.80;100.00
3294;BME280;1659;51.470;6.770;2023-09-30T06:01:08;102410.34;;;11.86;100.00
3294;BME280;1659;51.470;6.770;2023-09-30T06:03:38;102412.13;;;11.90;100.00
3294;BME280;1659;51.470;6.770;2023-09-30T06:06:10;102409.50;;;11.95;100.00
3294;BME280;1659;51.470;6.770;2023-09-30T06:08:37;102415.69;;;11.98;100.00
3294;BME280;1659;51.470;6.770;2023-09-30T06:11:04;102406.88;;;12.01;100.00
3294;BME280;1659;51.470;6.770;2023-09-30T06:13:32;102406.88;;;12.05;100.00
3294;BME280;1659;51.470;6.770;2023-09-30T06:16:00;102410.41;;;12.11;100.00
3294;BME280;1659;51.470;6.770;2023-09-30T06:18:27;102422.78;;;12.18;100.00
3294;BME280;1659;51.470;6.770;2023-09-30T06:20:54;102429.88;;;12.25;100.00
3294;BME280;1659;51.470;6.770;2023-09-30T06:23:20;102416.63;;;12.30;100.00
3294;BME280;1659;51.470;6.770;2023-09-30T06:25:47;102412.22;;;12.36;100.00
3294;BME280;1659;51.470;6.770;2023-09-30T06:28:14;102416.63;;;12.40;100.00
3294;BME280;1659;51.470;6.770;2023-09-30T06:30:40;102414.84;;;12.45;100.00
3294;BME280;1659;51.470;6.770;2023-09-30T06:33:09;102409.56;;;12.50;100.00
3294;BME280;1659;51.470;6.770;2023-09-30T06:35:38;102407.78;;;12.55;100.00
3294;BME280;1659;51.470;6.770;2023-09-30T06:38:15;102410.41;;;12.61;100.00
3294;BME280;1659;51.470;6.770;2023-09-30T06:40:42;102414.88;;;12.69;100.00
3294;BME280;1659;51.470;6.770;2023-09-30T06:43:10;102420.16;;;12.75;100.00
3294;BME280;1659;51.470;6.770;2023-09-30T06:45:37;102417.47;;;12.82;100.00
3294;BME280;1659;51.470;6.770;2023-09-30T06:48:08;102426.31;;;12.92;100.00
3294;BME280;1659;51.470;6.770;2023-09-30T06:50:39;102422.75;;;13.02;100.00
3294;BME280;1659;51.470;6.770;2023-09-30T06:53:05;102429.81;;;13.13;100.00
3294;BME280;1659;51.470;6.770;2023-09-30T06:55:34;102425.31;;;13.29;100.00
3294;BME280;1659;51.470;6.770;2023-09-30T06:58:02;102419.91;;;13.61;100.00
3294;BME280;1659;51.470;6.770;2023-09-30T07:00:32;102421.47;;;13.96;100.00
3294;BME280;1659;51.470;6.770;2023-09-30T07:02:59;102424.81;;;14.26;100.00
3294;BME280;1659;51.470;6.770;2023-09-30T07:05:27;102425.50;;;14.56;100.00
3294;BME280;1659;51.470;6.770;2023-09-30T07:07:54;102435.00;;;14.83;100.00
3294;BME280;1659;51.470;6.770;2023-09-30T07:10:21;102437.50;;;15.01;100.00
3294;BME280;1659;51.470;6.770;2023-09-30T07:12:48;102439.94;;;15.18;100.00
3294;BME280;1659;51.470;6.770;2023-09-30T07:15:14;102446.09;;;15.26;100.00
3294;BME280;1659;51.470;6.770;2023-09-30T07:17:41;102454.88;;;15.33;100.00
3294;BME280;1659;51.470;6.770;2023-09-30T07:20:09;102460.97;;;15.44;100.00
3294;BME280;1659;51.470;6.770;2023-09-30T07:22:37;102469.63;;;15.63;100.00
3294;BME280;1659;51.470;6.770;2023-09-30T07:25:04;102473.78;;;15.86;100.00
3294;BME280;1659;51.470;6.770;2023-09-30T07:27:31;102485.97;;;16.05;100.00
3294;BME280;1659;51.470;6.770;2023-09-30T07:29:57;102479.63;;;16.13;100.00
3294;BME280;1659;51.470;6.770;2023-09-30T07:32:24;102489.03;;;16.38;100.00
3294;BME280;1659;51.470;6.770;2023-09-30T07:34:50;102491.25;;;16.68;100.00
3294;BME280;1659;51.470;6.770;2023-09-30T07:37:18;102497.03;;;16.94;100.00
3294;BME280;1659;51.470;6.770;2023-09-30T07:39:47;102498.56;;;17.11;100.00
3294;BME280;1659;51.470;6.770;2023-09-30T07:42:13;102489.13;;;17.36;100.00
3294;BME280;1659;51.470;6.770;2023-09-30T07:44:41;102498.22;;;17.71;100.00
3294;BME280;1659;51.470;6.770;2023-09-30T07:47:07;102505.63;;;18.02;100.00
3294;BME280;1659;51.470;6.770;2023-09-30T07:49:34;102507.03;;;18.19;100.00
3294;BME280;1659;51.470;6.770;2023-09-30T07:52:01;102506.84;;;18.28;100.00
3294;BME280;1659;51.470;6.770;2023-09-30T07:54:29;102513.97;;;18.27;100.00
3294;BME280;1659;51.470;6.770;2023-09-30T07:56:57;102514.72;;;18.34;100.00
3294;BME280;1659;51.470;6.770;2023-09-30T07:59:24;102498.34;;;18.46;100.00
3294;BME280;1659;51.470;6.770;2023-09-30T08:01:51;102507.88;;;18.60;100.00
3294;BME280;1659;51.470;6.770;2023-09-30T08:04:18;102511.06;;;18.74;100.00
3294;BME280;1659;51.470;6.770;2023-09-30T08:06:44;102512.69;;;18.80;100.00
3294;BME280;1659;51.470;6.770;2023-09-30T08:09:12;102512.56;;;18.88;100.00
3294;BME280;1659;51.470;6.770;2023-09-30T08:11:39;102516.78;;;18.98;100.00
3294;BME280;1659;51.470;6.770;2023-09-30T08:14:07;102522.75;;;19.08;100.00
3294;BME280;1659;51.470;6.770;2023-09-30T08:16:34;102525.50;;;19.37;100.00
3294;BME280;1659;51.470;6.770;2023-09-30T08:19:02;102531.28;;;19.55;100.00
3294;BME280;1659;51.470;6.770;2023-09-30T08:21:28;102523.63;;;19.72;100.00
3294;BME280;1659;51.470;6.770;2023-09-30T08:23:55;102525.50;;;20.02;100.00
3294;BME280;1659;51.470;6.770;2023-09-30T08:26:22;102533.41;;;20.06;99.63
3294;BME280;1659;51.470;6.770;2023-09-30T08:28:49;102537.00;;;20.05;97.45
3294;BME280;1659;51.470;6.770;2023-09-30T08:31:17;102532.50;;;20.06;96.05
3294;BME280;1659;51.470;6.770;2023-09-30T08:33:44;102521.47;;;20.16;94.52
3294;BME280;1659;51.470;6.770;2023-09-30T08:36:11;102527.66;;;20.47;93.75
3294;BME280;1659;51.470;6.770;2023-09-30T08:38:38;102520.00;;;20.63;90.87
3294;BME280;1659;51.470;6.770;2023-09-30T08:41:05;102522.81;;;20.86;89.89
3294;BME280;1659;51.470;6.770;2023-09-30T08:43:37;102507.22;;;20.96;88.19
3294;BME280;1659;51.470;6.770;2023-09-30T08:46:05;102504.97;;;21.09;87.08
3294;BME280;1659;51.470;6.770;2023-09-30T08:48:36;102503.78;;;21.18;85.54
3294;BME280;1659;51.470;6.770;2023-09-30T08:51:03;102503.22;;;21.33;85.37
3294;BME280;1659;51.470;6.770;2023-09-30T08:53:30;102498.63;;;21.62;84.19
3294;BME280;1659;51.470;6.770;2023-09-30T08:55:57;102506.25;;;21.96;83.61
3294;BME280;1659;51.470;6.770;2023-09-30T08:58:27;102506.25;;;22.20;82.36
3294;BME280;1659;51.470;6.770;2023-09-30T09:00:55;102488.59;;;22.35;80.97
3294;BME280;1659;51.470;6.770;2023-09-30T09:03:21;102489.28;;;22.62;79.53
3294;BME280;1659;51.470;6.770;2023-09-30T09:05:54;102481.41;;;22.78;79.49
3294;BME280;1659;51.470;6.770;2023-09-30T09:08:22;102488.19;;;22.66;78.33
3294;BME280;1659;51.470;6.770;2023-09-30T09:10:54;102492.13;;;22.79;78.10
3294;BME280;1659;51.470;6.770;2023-09-30T09:13:21;102487.69;;;22.99;77.32
3294;BME280;1659;51.470;6.770;2023-09-30T09:15:48;102481.91;;;23.29;76.42
3294;BME280;1659;51.470;6.770;2023-09-30T09:18:31;102470.16;;;23.69;74.75
3294;BME280;1659;51.470;6.770;2023-09-30T09:21:09;102490.03;;;24.06;73.39
3294;BME280;1659;51.470;6.770;2023-09-30T09:23:39;102494.13;;;24.15;72.84
3294;BME280;1659;51.470;6.770;2023-09-30T09:26:06;102496.00;;;24.13;72.50
3294;BME280;1659;51.470;6.770;2023-09-30T09:28:34;102505.13;;;24.29;72.44
3294;BME280;1659;51.470;6.770;2023-09-30T09:31:01;102508.22;;;24.39;71.54
3294;BME280;1659;51.470;6.770;2023-09-30T09:33:35;102502.09;;;24.36;70.83
3294;BME280;1659;51.470;6.770;2023-09-30T09:36:02;102495.50;;;24.60;70.63
3294;BME280;1659;51.470;6.770;2023-09-30T09:38:43;102496.03;;;24.30;69.17
3294;BME280;1659;51.470;6.770;2023-09-30T09:41:10;102494.78;;;24.20;69.56
3294;BME280;1659;51.470;6.770;2023-09-30T09:43:37;102502.88;;;24.20;68.79
3294;BME280;1659;51.470;6.770;2023-09-30T09:46:07;102490.25;;;23.83;68.21
3294;BME280;1659;51.470;6.770;2023-09-30T09:48:35;102489.50;;;23.79;68.00
3294;BME280;1659;51.470;6.770;2023-09-30T09:51:02;102494.66;;;23.85;67.57
3294;BME280;1659;51.470;6.770;2023-09-30T09:53:32;102497.59;;;23.79;67.37
3294;BME280;1659;51.470;6.770;2023-09-30T09:56:03;102505.28;;;23.88;66.43
3294;BME280;1659;51.470;6.770;2023-09-30T09:58:33;102500.28;;;23.60;66.20
3294;BME280;1659;51.470;6.770;2023-09-30T10:01:00;102505.03;;;23.74;65.16
3294;BME280;1659;51.470;6.770;2023-09-30T10:03:27;102511.47;;;23.71;64.94
3294;BME280;1659;51.470;6.770;2023-09-30T10:05:54;102522.03;;;23.76;64.08
3294;BME280;1659;51.470;6.770;2023-09-30T10:08:27;102527.81;;;23.48;64.03
3294;BME280;1659;51.470;6.770;2023-09-30T10:10:55;102526.97;;;23.47;64.48
3294;BME280;1659;51.470;6.770;2023-09-30T10:13:50;102534.56;;;23.98;63.66
3294;BME280;1659;51.470;6.770;2023-09-30T10:16:48;102535.13;;;24.23;62.46
3294;BME280;1659;51.470;6.770;2023-09-30T10:19:17;102526.41;;;24.36;63.12
3294;BME280;1659;51.470;6.770;2023-09-30T10:22:22;102518.69;;;24.47;61.67
3294;BME280;1659;51.470;6.770;2023-09-30T10:24:50;102522.44;;;24.25;62.53
3294;BME280;1659;51.470;6.770;2023-09-30T10:27:36;102529.91;;;24.01;62.38
3294;BME280;1659;51.470;6.770;2023-09-30T10:30:11;102526.47;;;23.98;63.30
3294;BME280;1659;51.470;6.770;2023-09-30T10:33:12;102522.63;;;24.40;62.45
3294;BME280;1659;51.470;6.770;2023-09-30T10:35:46;102531.16;;;24.86;62.01
3294;BME280;1659;51.470;6.770;2023-09-30T10:38:39;102524.53;;;25.09;60.61
3294;BME280;1659;51.470;6.770;2023-09-30T10:41:09;102520.25;;;25.40;61.03
3294;BME280;1659;51.470;6.770;2023-09-30T10:43:38;102532.09;;;25.55;60.46
3294;BME280;1659;51.470;6.770;2023-09-30T10:46:31;102529.16;;;25.75;59.58
3294;BME280;1659;51.470;6.770;2023-09-30T10:49:30;102520.75;;;26.13;58.53
3294;BME280;1659;51.470;6.770;2023-09-30T10:52:01;102508.25;;;25.95;58.96
3294;BME280;1659;51.470;6.770;2023-09-30T10:54:29;102522.00;;;25.74;59.01
3294;BME280;1659;51.470;6.770;2023-09-30T10:56:57;102510.38;;;25.72;59.05
3294;BME280;1659;51.470;6.770;2023-09-30T10:59:26;102512.34;;;25.86;58.80
3294;BME280;1659;51.470;6.770;2023-09-30T11:01:54;102505.66;;;25.60;58.15
3294;BME280;1659;51.470;6.770;2023-09-30T11:04:20;102514.84;;;25.40;58.42
3294;BME280;1659;51.470;6.770;2023-09-30T11:06:47;102507.31;;;25.78;58.02
3294;BME280;1659;51.470;6.770;2023-09-30T11:09:17;102510.41;;;25.88;56.87
3294;BME280;1659;51.470;6.770;2023-09-30T11:11:46;102505.00;;;25.88;56.62
3294;BME280;1659;51.470;6.770;2023-09-30T11:14:18;102502.31;;;25.55;56.54
3294;BME280;1659;51.470;6.770;2023-09-30T11:16:46;102492.47;;;25.19;57.39
3294;BME280;1659;51.470;6.770;2023-09-30T11:19:15;102486.94;;;24.87;57.79
3294;BME280;1659;51.470;6.770;2023-09-30T11:21:43;102488.09;;;24.46;58.49
3294;BME280;1659;51.470;6.770;2023-09-30T11:24:10;102491.19;;;24.01;58.89
3294;BME280;1659;51.470;6.770;2023-09-30T11:26:37;102487.09;;;23.73;59.47
3294;BME280;1659;51.470;6.770;2023-09-30T11:29:07;102492.09;;;23.62;59.69
3294;BME280;1659;51.470;6.770;2023-09-30T11:31:37;102483.59;;;23.31;59.47
3294;BME280;1659;51.470;6.770;2023-09-30T11:34:04;102487.63;;;23.00;59.98
3294;BME280;1659;51.470;6.770;2023-09-30T11:36:35;102487.44;;;22.85;60.22
3294;BME280;1659;51.470;6.770;2023-09-30T11:39:02;102480.06;;;23.10;60.02
3294;BME280;1659;51.470;6.770;2023-09-30T11:41:33;102480.38;;;23.23;59.03
3294;BME280;1659;51.470;6.770;2023-09-30T11:44:02;102473.63;;;23.13;59.07
3294;BME280;1659;51.470;6.770;2023-09-30T11:46:30;102477.75;;;23.22;58.20
3294;BME280;1659;51.470;6.770;2023-09-30T11:49:00;102481.66;;;23.35;57.87
3294;BME280;1659;51.470;6.770;2023-09-30T11:51:28;102483.78;;;23.47;57.38
3294;BME280;1659;51.470;6.770;2023-09-30T11:53:56;102482.50;;;23.35;57.49
3294;BME280;1659;51.470;6.770;2023-09-30T11:56:23;102488.94;;;23.12;58.31
3294;BME280;1659;51.470;6.770;2023-09-30T11:58:54;102487.25;;;23.10;58.31
3294;BME280;1659;51.470;6.770;2023-09-30T12:01:21;102480.72;;;23.15;58.27
3294;BME280;1659;51.470;6.770;2023-09-30T12:03:50;102476.06;;;23.19;57.68
3294;BME280;1659;51.470;6.770;2023-09-30T12:06:18;102472.47;;;23.39;57.74
3294;BME280;1659;51.470;6.770;2023-09-30T12:08:45;102457.31;;;23.55;57.39
3294;BME280;1659;51.470;6.770;2023-09-30T12:11:13;102466.72;;;23.47;57.05
3294;BME280;1659;51.470;6.770;2023-09-30T12:13:41;102461.50;;;23.23;57.68
3294;BME280;1659;51.470;6.770;2023-09-30T12:16:10;102461.34;;;22.85;58.32
3294;BME280;1659;51.470;6.770;2023-09-30T12:18:36;102451.16;;;22.51;59.05
3294;BME280;1659;51.470;6.770;2023-09-30T12:21:03;102449.81;;;22.17;59.37
3294;BME280;1659;51.470;6.770;2023-09-30T12:23:31;102437.97;;;21.99;59.85
3294;BME280;1659;51.470;6.770;2023-09-30T12:25:58;102432.06;;;21.89;60.12
3294;BME280;1659;51.470;6.770;2023-09-30T12:28:26;102433.03;;;21.88;60.26
3294;BME280;1659;51.470;6.770;2023-09-30T12:30:57;102440.06;;;22.36;59.62
3294;BME280;1659;51.470;6.770;2023-09-30T12:33:23;102453.38;;;22.82;59.15
3294;BME280;1659;51.470;6.770;2023-09-30T12:35:50;102453.53;;;23.60;57.74
3294;BME280;1659;51.470;6.770;2023-09-30T12:38:17;102451.34;;;24.42;56.67
3294;BME280;1659;51.470;6.770;2023-09-30T12:40:43;102445.81;;;24.98;55.04
3294;BME280;1659;51.470;6.770;2023-09-30T12:43:10;102449.69;;;25.10;54.94
3294;BME280;1659;51.470;6.770;2023-09-30T12:45:38;102443.69;;;25.38;54.45
3294;BME280;1659;51.470;6.770;2023-09-30T12:48:05;102441.53;;;25.76;54.07
3294;BME280;1659;51.470;6.770;2023-09-30T12:50:32;102435.25;;;26.24;53.18
3294;BME280;1659;51.470;6.770;2023-09-30T12:52:59;102431.63;;;26.39;52.40
3294;BME280;1659;51.470;6.770;2023-09-30T12:55:25;102433.09;;;26.14;52.67
3294;BME280;1659;51.470;6.770;2023-09-30T12:57:52;102431.78;;;26.06;52.78
3294;BME280;1659;51.470;6.770;2023-09-30T13:00:19;102435.41;;;26.21;52.24
3294;BME280;1659;51.470;6.770;2023-09-30T13:02:51;102438.22;;;26.19;51.68
3294;BME280;1659;51.470;6.770;2023-09-30T13:05:18;102433.00;;;26.16;51.88
3294;BME280;1659;51.470;6.770;2023-09-30T13:07:45;102416.56;;;26.49;51.46
3294;BME280;1659;51.470;6.770;2023-09-30T13:10:11;102428.06;;;26.69;50.83
3294;BME280;1659;51.470;6.770;2023-09-30T13:12:38;102423.81;;;26.18;50.66